sensor_id;sensor_type;location;lat;lon;timestamp;temperature;humidity
8633;DHT22;4354;49.832;10.746;2023-12-07T00:00:00;1.20;99.90
8633;DHT22;4354;49.832;10.746;2023-12-07T00:02:27;1.20;99.90
8633;DHT22;4354;49.832;10.746;2023-12-07T00:04:53;1.20;99.90
8633;DHT22;4354;49.832;10.746;2023-12-07T00:07:20;1.20;99.90
8633;DHT22;4354;49.832;10.746;2023-12-07T00:09:47;1.20;99.90
8633;DHT22;4354;49.832;10.746;2023-12-07T00:12:14;1.20;99.90
8633;DHT22;4354;49.832;10.746;2023-12-07T00:14:41;1.30;99.90
8633;DHT22;4354;49.832;10.746;2023-12-07T00:17:08;1.30;99.90
8633;DHT22;4354;49.832;10.746;2023-12-07T00:19:35;1.20;99.90
8633;DHT22;4354;49.832;10.746;2023-12-07T00:22:02;1.20;99.90
8633;DHT22;4354;49.832;10.746;2023-12-07T00:24:29;1.20;99.90
8633;DHT22;4354;49.832;10.746;2023-12-07T00:26:57;1.20;99.90
8633;DHT22;4354;49.832;10.746;2023-12-07T00:29:24;1.10;99.90
8633;DHT22;4354;49.832;10.746;2023-12-07T00:31:50;1.00;99.90
8633;DHT22;4354;49.832;10.746;2023-12-07T00:34:18;1.00;99.90
8633;DHT22;4354;49.832;10.746;2023-12-07T00:36:46;1.00;99.90
8633;DHT22;4354;49.832;10.746;2023-12-07T00:39:12;0.90;99.90
8633;DHT22;4354;49.832;10.746;2023-12-07T00:41:39;0.90;99.90
8633;DHT22;4354;49.832;10.746;2023-12-07T00:44:06;0.90;99.90
8633;DHT22;4354;49.832;10.746;2023-12-07T00:46:33;0.90;99.90
8633;DHT22;4354;49.832;10.746;2023-12-07T00:48:59;1.00;99.90
8633;DHT22;4354;49.832;10.746;2023-12-07T00:51:27;1.00;99.90
8633;DHT22;4354;49.832;10.746;2023-12-07T00:53:54;1.00;99.90
8633;DHT22;4354;49.832;10.746;2023-12-07T00:56:20;1.00;99.90
8633;DHT22;4354;49.832;10.746;2023-12-07T00:58:47;1.00;99.90
8633;DHT22;4354;49.832;10.746;2023-12-07T01:01:14;1.10;99.90
8633;DHT22;4354;49.832;10.746;2023-12-07T01:03:41;1.10;99.90
8633;DHT22;4354;49.832;10.746;2023-12-07T01:06:08;1.10;99.90
8633;DHT22;4354;49.832;10.746;2023-12-07T01:08:37;1.20;99.90
8633;DHT22;4354;49.832;10.746;2023-12-07T01:11:04;1.20;99.90
8633;DHT22;4354;49.832;10.746;2023-12-07T01:13:31;1.20;99.90
8633;DHT22;4354;49.832;10.746;2023-12-07T01:15:58;1.20;99.90
8633;DHT22;4354;49.832;10.746;2023-12-07T01:18:25;1.20;99.90
8633;DHT22;4354;49.832;10.746;2023-12-07T01:20:52;1.20;99.90
8633;DHT22;4354;49.832;10.746;2023-12-07T01:23:18;1.20;99.90
8633;DHT22;4354;49.832;10.746;2023-12-07T01:25:45;1.30;99.90
8633;DHT22;4354;49.832;10.746;2023-12-07T01:28:12;1.30;99.90
8633;DHT22;4354;49.832;10.746;2023-12-07T01:30:39;1.30;99.90
8633;DHT22;4354;49.832;10.746;2023-12-07T01:33:06;1.30;99.90
8633;DHT22;4354;49.832;10.746;2023-12-07T01:35:32;1.30;99.90
8633;DHT22;4354;49.832;10.746;2023-12-07T01:37:59;1.30;99.90
8633;DHT22;4354;49.832;10.746;2023-12-07T01:40:26;1.30;99.90
8633;DHT22;4354;49.832;10.746;2023-12-07T01:42:53;1.30;99.90
8633;DHT22;4354;49.832;10.746;2023-12-07T01:45:20;1.30;99.90
8633;DHT22;4354;49.832;10.746;2023-12-07T01:47:49;1.30;99.90
8633;DHT22;4354;49.832;10.746;2023-12-07T01:50:17;1.30;99.90
8633;DHT22;4354;49.832;10.746;2023-12-07T01:52:54;1.30;99.90
8633;DHT22;4354;49.832;10.746;2023-12-07T01:55:22;1.30;99.90
8633;DHT22;4354;49.832;10.746;2023-12-07T01:57:49;1.20;99.90
8633;DHT22;4354;49.832;10.746;2023-12-07T02:00:17;1.10;99.90
8633;DHT22;4354;49.832;10.746;2023-12-07T02:02:44;1.10;99.90
8633;DHT22;4354;49.832;10.746;2023-12-07T02:05:13;1.00;99.90
8633;DHT22;4354;49.832;10.746;2023-12-07T02:07:41;1.00;99.90
8633;DHT22;4354;49.832;10.746;2023-12-07T02:10:10;1.00;99.90
8633;DHT22;4354;49.832;10.746;2023-12-07T02:12:36;1.00;99.90
8633;DHT22;4354;49.832;10.746;2023-12-07T02:15:04;1.00;99.90
8633;DHT22;4354;49.832;10.746;2023-12-07T02:20:47;0.90;99.90
8633;DHT22;4354;49.832;10.746;2023-12-07T02:23:18;0.90;99.90
8633;DHT22;4354;49.832;10.746;2023-12-07T02:26:07;0.90;99.90
8633;DHT22;4354;49.832;10.746;2023-12-07T02:28:35;0.90;99.90
8633;DHT22;4354;49.832;10.746;2023-12-07T02:31:02;0.80;99.90
8633;DHT22;4354;49.832;10.746;2023-12-07T02:33:29;0.80;99.90
8633;DHT22;4354;49.832;10.746;2023-12-07T02:35:56;0.80;99.90
8633;DHT22;4354;49.832;10.746;2023-12-07T02:38:26;0.70;99.90
8633;DHT22;4354;49.832;10.746;2023-12-07T02:40:54;0.60;99.90
8633;DHT22;4354;49.832;10.746;2023-12-07T02:43:22;0.60;99.90
8633;DHT22;4354;49.832;10.746;2023-12-07T02:45:49;0.60;99.90
8633;DHT22;4354;49.832;10.746;2023-12-07T02:48:16;0.60;99.90
8633;DHT22;4354;49.832;10.746;2023-12-07T02:50:43;0.60;99.90
8633;DHT22;4354;49.832;10.746;2023-12-07T02:53:10;0.60;99.90
8633;DHT22;4354;49.832;10.746;2023-12-07T02:55:37;0.60;99.90
8633;DHT22;4354;49.832;10.746;2023-12-07T02:58:04;0.50;99.90
8633;DHT22;4354;49.832;10.746;2023-12-07T03:00:31;0.50;99.90
8633;DHT22;4354;49.832;10.746;2023-12-07T03:02:57;0.40;99.90
8633;DHT22;4354;49.832;10.746;2023-12-07T03:05:24;0.30;99.90
8633;DHT22;4354;49.832;10.746;2023-12-07T03:07:51;0.30;99.90
8633;DHT22;4354;49.832;10.746;2023-12-07T03:10:18;0.20;99.90
8633;DHT22;4354;49.832;10.746;2023-12-07T03:12:44;0.10;99.90
8633;DHT22;4354;49.832;10.746;2023-12-07T03:15:11;0.10;99.90
8633;DHT22;4354;49.832;10.746;2023-12-07T03:17:40;0.10;99.90
8633;DHT22;4354;49.832;10.746;2023-12-07T03:20:07;0.10;99.90
8633;DHT22;4354;49.832;10.746;2023-12-07T03:22:34;0.00;99.90
8633;DHT22;4354;49.832;10.746;2023-12-07T03:25:03;0.00;99.90
8633;DHT22;4354;49.832;10.746;2023-12-07T03:27:29;-0.10;99.90
8633;DHT22;4354;49.832;10.746;2023-12-07T03:29:56;-0.20;99.90
8633;DHT22;4354;49.832;10.746;2023-12-07T03:32:23;-0.30;99.90
8633;DHT22;4354;49.832;10.746;2023-12-07T03:34:50;-0.30;99.90
8633;DHT22;4354;49.832;10.746;2023-12-07T03:37:17;-0.30;99.90
8633;DHT22;4354;49.832;10.746;2023-12-07T03:39:44;-0.40;99.90
8633;DHT22;4354;49.832;10.746;2023-12-07T03:42:11;-0.40;99.90
8633;DHT22;4354;49.832;10.746;2023-12-07T03:44:58;-0.50;99.90
8633;DHT22;4354;49.832;10.746;2023-12-07T03:47:24;-0.60;99.90
8633;DHT22;4354;49.832;10.746;2023-12-07T03:49:51;-0.60;99.90
8633;DHT22;4354;49.832;10.746;2023-12-07T03:52:18;-0.70;99.90
8633;DHT22;4354;49.832;10.746;2023-12-07T03:54:45;-0.80;99.90
8633;DHT22;4354;49.832;10.746;2023-12-07T03:57:11;-0.80;99.90
8633;DHT22;4354;49.832;10.746;2023-12-07T03:59:38;-0.80;99.90
8633;DHT22;4354;49.832;10.746;2023-12-07T04:02:05;-0.90;99.90
8633;DHT22;4354;49.832;10.746;2023-12-07T04:04:32;-0.90;99.90
8633;DHT22;4354;49.832;10.746;2023-12-07T04:06:58;-1.00;99.90
8633;DHT22;4354;49.832;10.746;2023-12-07T04:09:26;-1.00;99.90
8633;DHT22;4354;49.832;10.746;2023-12-07T04:11:53;-1.10;99.90
8633;DHT22;4354;49.832;10.746;2023-12-07T04:14:19;-1.10;99.90
8633;DHT22;4354;49.832;10.746;2023-12-07T04:16:47;-1.20;99.90
8633;DHT22;4354;49.832;10.746;2023-12-07T04:19:14;-1.20;99.90
8633;DHT22;4354;49.832;10.746;2023-12-07T04:21:40;-1.20;99.90
8633;DHT22;4354;49.832;10.746;2023-12-07T04:24:07;-1.20;99.90
8633;DHT22;4354;49.832;10.746;2023-12-07T04:26:34;-1.20;99.90
8633;DHT22;4354;49.832;10.746;2023-12-07T04:29:01;-1.30;99.90
8633;DHT22;4354;49.832;10.746;2023-12-07T04:31:28;-1.30;99.90
8633;DHT22;4354;49.832;10.746;2023-12-07T04:33:55;-1.30;99.90
8633;DHT22;4354;49.832;10.746;2023-12-07T04:36:21;-1.40;99.90
8633;DHT22;4354;49.832;10.746;2023-12-07T04:38:49;-1.50;99.90
8633;DHT22;4354;49.832;10.746;2023-12-07T04:41:16;-1.50;99.90
8633;DHT22;4354;49.832;10.746;2023-12-07T04:43:42;-1.60;99.90
8633;DHT22;4354;49.832;10.746;2023-12-07T04:46:09;-1.60;99.90
8633;DHT22;4354;49.832;10.746;2023-12-07T04:48:36;-1.60;99.90
8633;DHT22;4354;49.832;10.746;2023-12-07T04:51:03;-1.70;99.90
8633;DHT22;4354;49.832;10.746;2023-12-07T04:53:30;-1.60;99.90
8633;DHT22;4354;49.832;10.746;2023-12-07T04:55:57;-1.60;99.90
8633;DHT22;4354;49.832;10.746;2023-12-07T04:58:24;-1.70;99.90
8633;DHT22;4354;49.832;10.746;2023-12-07T05:00:50;-1.70;99.90
8633;DHT22;4354;49.832;10.746;2023-12-07T05:03:17;-1.80;99.90
8633;DHT22;4354;49.832;10.746;2023-12-07T05:05:44;-1.80;99.90
8633;DHT22;4354;49.832;10.746;2023-12-07T05:08:11;-1.80;99.90
8633;DHT22;4354;49.832;10.746;2023-12-07T05:10:38;-1.90;99.90
8633;DHT22;4354;49.832;10.746;2023-12-07T05:13:05;-1.90;99.90
8633;DHT22;4354;49.832;10.746;2023-12-07T05:15:31;-1.90;99.90
8633;DHT22;4354;49.832;10.746;2023-12-07T05:17:58;-1.90;99.90
8633;DHT22;4354;49.832;10.746;2023-12-07T05:20:25;-1.90;99.90
8633;DHT22;4354;49.832;10.746;2023-12-07T05:22:54;-1.90;99.90
8633;DHT22;4354;49.832;10.746;2023-12-07T05:25:21;-1.90;99.90
8633;DHT22;4354;49.832;10.746;2023-12-07T05:27:47;-1.90;99.90
8633;DHT22;4354;49.832;10.746;2023-12-07T05:30:14;-1.90;99.90
8633;DHT22;4354;49.832;10.746;2023-12-07T05:32:41;-1.90;99.90
8633;DHT22;4354;49.832;10.746;2023-12-07T05:35:08;-1.80;99.90
8633;DHT22;4354;49.832;10.746;2023-12-07T05:37:35;-1.80;99.90
8633;DHT22;4354;49.832;10.746;2023-12-07T05:40:02;-1.80;99.90
8633;DHT22;4354;49.832;10.746;2023-12-07T05:42:29;-1.70;99.90
8633;DHT22;4354;49.832;10.746;2023-12-07T05:44:56;-1.70;99.90
8633;DHT22;4354;49.832;10.746;2023-12-07T05:47:22;-1.80;99.90
8633;DHT22;4354;49.832;10.746;2023-12-07T05:49:50;-1.90;99.90
8633;DHT22;4354;49.832;10.746;2023-12-07T05:52:16;-2.00;99.90
8633;DHT22;4354;49.832;10.746;2023-12-07T05:54:43;-2.00;99.90
8633;DHT22;4354;49.832;10.746;2023-12-07T05:57:13;-2.10;99.90
8633;DHT22;4354;49.832;10.746;2023-12-07T05:59:40;-2.20;99.90
8633;DHT22;4354;49.832;10.746;2023-12-07T06:02:08;-2.20;99.90
8633;DHT22;4354;49.832;10.746;2023-12-07T06:04:35;-2.30;99.90
8633;DHT22;4354;49.832;10.746;2023-12-07T06:07:02;-2.40;99.90
8633;DHT22;4354;49.832;10.746;2023-12-07T06:09:29;-2.30;99.90
8633;DHT22;4354;49.832;10.746;2023-12-07T06:11:56;-2.30;99.90
8633;DHT22;4354;49.832;10.746;2023-12-07T06:14:22;-2.30;99.90
8633;DHT22;4354;49.832;10.746;2023-12-07T06:16:49;-2.20;99.90
8633;DHT22;4354;49.832;10.746;2023-12-07T06:19:16;-2.10;99.90
8633;DHT22;4354;49.832;10.746;2023-12-07T06:21:43;-2.10;99.90
8633;DHT22;4354;49.832;10.746;2023-12-07T06:24:11;-2.20;99.90
8633;DHT22;4354;49.832;10.746;2023-12-07T06:26:37;-2.20;99.90
8633;DHT22;4354;49.832;10.746;2023-12-07T06:29:04;-2.30;99.90
8633;DHT22;4354;49.832;10.746;2023-12-07T06:31:31;-2.30;99.90
8633;DHT22;4354;49.832;10.746;2023-12-07T06:33:58;-2.30;99.90
8633;DHT22;4354;49.832;10.746;2023-12-07T06:36:27;-2.20;99.90
8633;DHT22;4354;49.832;10.746;2023-12-07T06:38:53;-2.10;99.90
8633;DHT22;4354;49.832;10.746;2023-12-07T06:41:24;-2.00;99.90
8633;DHT22;4354;49.832;10.746;2023-12-07T06:43:51;-2.00;99.90
8633;DHT22;4354;49.832;10.746;2023-12-07T06:46:20;-1.90;99.90
8633;DHT22;4354;49.832;10.746;2023-12-07T06:48:47;-2.00;99.90
8633;DHT22;4354;49.832;10.746;2023-12-07T06:51:13;-2.00;99.90
8633;DHT22;4354;49.832;10.746;2023-12-07T06:53:41;-2.00;99.90
8633;DHT22;4354;49.832;10.746;2023-12-07T06:56:08;-2.00;99.90
8633;DHT22;4354;49.832;10.746;2023-12-07T06:58:35;-2.00;99.90
8633;DHT22;4354;49.832;10.746;2023-12-07T07:01:02;-2.10;99.90
8633;DHT22;4354;49.832;10.746;2023-12-07T07:03:29;-2.00;99.90
8633;DHT22;4354;49.832;10.746;2023-12-07T07:05:56;-2.10;99.90
8633;DHT22;4354;49.832;10.746;2023-12-07T07:08:23;-2.10;99.90
8633;DHT22;4354;49.832;10.746;2023-12-07T07:10:49;-2.20;99.90
8633;DHT22;4354;49.832;10.746;2023-12-07T07:13:16;-2.20;99.90
8633;DHT22;4354;49.832;10.746;2023-12-07T07:15:46;-2.20;99.90
8633;DHT22;4354;49.832;10.746;2023-12-07T07:18:14;-2.20;99.90
8633;DHT22;4354;49.832;10.746;2023-12-07T07:20:41;-2.10;99.90
8633;DHT22;4354;49.832;10.746;2023-12-07T07:23:08;-2.20;99.90
8633;DHT22;4354;49.832;10.746;2023-12-07T07:25:35;-2.20;99.90
8633;DHT22;4354;49.832;10.746;2023-12-07T07:28:02;-2.10;99.90
8633;DHT22;4354;49.832;10.746;2023-12-07T07:30:30;-2.20;99.90
8633;DHT22;4354;49.832;10.746;2023-12-07T07:32:57;-2.10;99.90
8633;DHT22;4354;49.832;10.746;2023-12-07T07:35:23;-2.10;99.90
8633;DHT22;4354;49.832;10.746;2023-12-07T07:37:50;-2.10;99.90
8633;DHT22;4354;49.832;10.746;2023-12-07T07:40:17;-2.20;99.90
8633;DHT22;4354;49.832;10.746;2023-12-07T07:42:44;-2.20;99.90
8633;DHT22;4354;49.832;10.746;2023-12-07T07:45:11;-2.30;99.90
8633;DHT22;4354;49.832;10.746;2023-12-07T07:47:38;-2.30;99.90
8633;DHT22;4354;49.832;10.746;2023-12-07T07:50:06;-2.30;99.90
8633;DHT22;4354;49.832;10.746;2023-12-07T07:52:34;-2.30;99.90
8633;DHT22;4354;49.832;10.746;2023-12-07T07:55:03;-2.20;99.90
8633;DHT22;4354;49.832;10.746;2023-12-07T07:57:30;-2.20;99.90
8633;DHT22;4354;49.832;10.746;2023-12-07T07:59:58;-2.10;99.90
8633;DHT22;4354;49.832;10.746;2023-12-07T08:02:25;-2.10;99.90
8633;DHT22;4354;49.832;10.746;2023-12-07T08:04:51;-2.00;99.90
8633;DHT22;4354;49.832;10.746;2023-12-07T08:07:18;-1.90;99.90
8633;DHT22;4354;49.832;10.746;2023-12-07T08:09:45;-1.80;99.90
8633;DHT22;4354;49.832;10.746;2023-12-07T08:12:12;-1.80;99.90
8633;DHT22;4354;49.832;10.746;2023-12-07T08:14:39;-1.80;99.90
8633;DHT22;4354;49.832;10.746;2023-12-07T08:17:06;-1.70;99.90
8633;DHT22;4354;49.832;10.746;2023-12-07T08:19:33;-1.70;99.90
8633;DHT22;4354;49.832;10.746;2023-12-07T08:22:00;-1.60;99.90
8633;DHT22;4354;49.832;10.746;2023-12-07T08:24:27;-1.60;99.90
8633;DHT22;4354;49.832;10.746;2023-12-07T08:26:53;-1.60;99.90
8633;DHT22;4354;49.832;10.746;2023-12-07T08:29:20;-1.50;99.90
8633;DHT22;4354;49.832;10.746;2023-12-07T08:31:47;-1.50;99.90
8633;DHT22;4354;49.832;10.746;2023-12-07T08:34:14;-1.50;99.90
8633;DHT22;4354;49.832;10.746;2023-12-07T08:36:41;-1.40;99.90
8633;DHT22;4354;49.832;10.746;2023-12-07T08:39:08;-1.40;99.90
8633;DHT22;4354;49.832;10.746;2023-12-07T08:41:36;-1.40;99.90
8633;DHT22;4354;49.832;10.746;2023-12-07T08:44:04;-1.30;99.90
8633;DHT22;4354;49.832;10.746;2023-12-07T08:46:32;-1.10;99.90
8633;DHT22;4354;49.832;10.746;2023-12-07T08:48:59;-1.00;99.90
8633;DHT22;4354;49.832;10.746;2023-12-07T08:51:26;-0.70;99.90
8633;DHT22;4354;49.832;10.746;2023-12-07T08:53:52;-0.70;99.90
8633;DHT22;4354;49.832;10.746;2023-12-07T08:56:22;-0.70;99.90
8633;DHT22;4354;49.832;10.746;2023-12-07T08:58:48;-0.80;99.90
8633;DHT22;4354;49.832;10.746;2023-12-07T09:01:15;-0.70;99.60
8633;DHT22;4354;49.832;10.746;2023-12-07T09:03:55;-0.50;99.90
8633;DHT22;4354;49.832;10.746;2023-12-07T09:06:23;-0.10;99.90
8633;DHT22;4354;49.832;10.746;2023-12-07T09:08:50;-0.10;83.50
8633;DHT22;4354;49.832;10.746;2023-12-07T09:11:16;0.10;74.20
8633;DHT22;4354;49.832;10.746;2023-12-07T09:13:43;0.50;87.60
8633;DHT22;4354;49.832;10.746;2023-12-07T09:16:10;0.60;38.40
8633;DHT22;4354;49.832;10.746;2023-12-07T09:18:37;0.60;1.00
8633;DHT22;4354;49.832;10.746;2023-12-07T09:21:04;0.90;1.00
8633;DHT22;4354;49.832;10.746;2023-12-07T09:23:31;1.10;1.00
8633;DHT22;4354;49.832;10.746;2023-12-07T09:25:58;1.20;1.00
8633;DHT22;4354;49.832;10.746;2023-12-07T09:28:25;1.60;1.00
8633;DHT22;4354;49.832;10.746;2023-12-07T09:30:52;1.60;1.00
8633;DHT22;4354;49.832;10.746;2023-12-07T09:33:18;1.50;1.00
8633;DHT22;4354;49.832;10.746;2023-12-07T09:35:47;1.40;1.00
8633;DHT22;4354;49.832;10.746;2023-12-07T09:38:15;1.60;1.00
8633;DHT22;4354;49.832;10.746;2023-12-07T09:40:43;1.60;99.90
8633;DHT22;4354;49.832;10.746;2023-12-07T09:43:13;1.70;1.00
8633;DHT22;4354;49.832;10.746;2023-12-07T09:45:39;2.10;1.00
8633;DHT22;4354;49.832;10.746;2023-12-07T09:48:07;2.40;99.90
8633;DHT22;4354;49.832;10.746;2023-12-07T09:50:35;2.30;1.00
8633;DHT22;4354;49.832;10.746;2023-12-07T09:53:02;2.40;99.90
8633;DHT22;4354;49.832;10.746;2023-12-07T09:55:35;2.60;99.90
8633;DHT22;4354;49.832;10.746;2023-12-07T09:58:04;2.40;1.00
8633;DHT22;4354;49.832;10.746;2023-12-07T10:00:33;2.30;27.90
8633;DHT22;4354;49.832;10.746;2023-12-07T10:03:01;2.30;99.90
8633;DHT22;4354;49.832;10.746;2023-12-07T10:05:28;2.00;99.90
8633;DHT22;4354;49.832;10.746;2023-12-07T10:07:55;1.60;1.00
8633;DHT22;4354;49.832;10.746;2023-12-07T10:10:22;1.40;99.90
8633;DHT22;4354;49.832;10.746;2023-12-07T10:12:52;1.20;1.00
8633;DHT22;4354;49.832;10.746;2023-12-07T10:15:20;1.00;1.00
8633;DHT22;4354;49.832;10.746;2023-12-07T10:20:20;1.00;1.00
8633;DHT22;4354;49.832;10.746;2023-12-07T10:23:07;1.10;1.00
8633;DHT22;4354;49.832;10.746;2023-12-07T10:25:40;1.10;1.00
8633;DHT22;4354;49.832;10.746;2023-12-07T10:28:10;1.10;1.00
8633;DHT22;4354;49.832;10.746;2023-12-07T10:30:40;1.20;1.00
8633;DHT22;4354;49.832;10.746;2023-12-07T10:33:10;1.30;1.00
8633;DHT22;4354;49.832;10.746;2023-12-07T10:35:40;1.50;1.00
8633;DHT22;4354;49.832;10.746;2023-12-07T10:38:09;1.60;1.00
8633;DHT22;4354;49.832;10.746;2023-12-07T10:40:36;1.70;1.00
8633;DHT22;4354;49.832;10.746;2023-12-07T10:43:08;1.90;1.00
8633;DHT22;4354;49.832;10.746;2023-12-07T10:45:36;2.20;1.00
8633;DHT22;4354;49.832;10.746;2023-12-07T10:48:08;2.40;1.00
8633;DHT22;4354;49.832;10.746;2023-12-07T10:50:38;2.50;1.00
8633;DHT22;4354;49.832;10.746;2023-12-07T10:53:21;2.50;1.00
8633;DHT22;4354;49.832;10.746;2023-12-07T10:55:52;2.60;1.00
8633;DHT22;4354;49.832;10.746;2023-12-07T10:58:23;2.60;1.00
8633;DHT22;4354;49.832;10.746;2023-12-07T11:00:54;2.70;1.00
8633;DHT22;4354;49.832;10.746;2023-12-07T11:03:22;2.80;1.00
8633;DHT22;4354;49.832;10.746;2023-12-07T11:05:49;2.90;1.00
8633;DHT22;4354;49.832;10.746;2023-12-07T11:08:33;2.90;1.00
8633;DHT22;4354;49.832;10.746;2023-12-07T11:14:02;3.10;1.00
8633;DHT22;4354;49.832;10.746;2023-12-07T11:16:35;3.00;1.00
8633;DHT22;4354;49.832;10.746;2023-12-07T11:19:03;3.00;1.00
8633;DHT22;4354;49.832;10.746;2023-12-07T11:21:34;3.10;1.00
8633;DHT22;4354;49.832;10.746;2023-12-07T11:24:01;3.20;1.00
8633;DHT22;4354;49.832;10.746;2023-12-07T11:26:28;3.40;1.00
8633;DHT22;4354;49.832;10.746;2023-12-07T11:28:55;3.50;1.00
8633;DHT22;4354;49.832;10.746;2023-12-07T11:31:23;3.80;1.00
8633;DHT22;4354;49.832;10.746;2023-12-07T11:33:50;4.10;1.00
8633;DHT22;4354;49.832;10.746;2023-12-07T11:36:17;4.60;1.00
8633;DHT22;4354;49.832;10.746;2023-12-07T11:41:51;5.60;1.00
8633;DHT22;4354;49.832;10.746;2023-12-07T11:44:20;6.00;1.00
8633;DHT22;4354;49.832;10.746;2023-12-07T11:46:50;6.40;1.00
8633;DHT22;4354;49.832;10.746;2023-12-07T11:49:17;6.70;99.90
8633;DHT22;4354;49.832;10.746;2023-12-07T11:52:15;7.10;99.90
8633;DHT22;4354;49.832;10.746;2023-12-07T11:54:47;7.30;99.90
8633;DHT22;4354;49.832;10.746;2023-12-07T11:57:15;7.20;93.40
8633;DHT22;4354;49.832;10.746;2023-12-07T11:59:45;7.20;2.90
8633;DHT22;4354;49.832;10.746;2023-12-07T12:02:14;6.90;1.00
8633;DHT22;4354;49.832;10.746;2023-12-07T12:04:42;6.80;1.00
8633;DHT22;4354;49.832;10.746;2023-12-07T12:07:09;6.70;1.00
8633;DHT22;4354;49.832;10.746;2023-12-07T12:09:36;6.60;1.00
8633;DHT22;4354;49.832;10.746;2023-12-07T12:12:03;6.50;99.90
8633;DHT22;4354;49.832;10.746;2023-12-07T12:14:30;6.30;6.60
8633;DHT22;4354;49.832;10.746;2023-12-07T12:16:57;6.00;35.90
8633;DHT22;4354;49.832;10.746;2023-12-07T12:19:24;5.70;99.90
8633;DHT22;4354;49.832;10.746;2023-12-07T12:22:03;5.60;99.90
8633;DHT22;4354;49.832;10.746;2023-12-07T12:24:37;5.40;1.00
8633;DHT22;4354;49.832;10.746;2023-12-07T12:27:04;5.40;1.00
8633;DHT22;4354;49.832;10.746;2023-12-07T12:29:32;5.30;1.00
8633;DHT22;4354;49.832;10.746;2023-12-07T12:32:02;5.40;99.90
8633;DHT22;4354;49.832;10.746;2023-12-07T12:34:30;5.30;1.00
8633;DHT22;4354;49.832;10.746;2023-12-07T12:36:59;5.50;1.00
8633;DHT22;4354;49.832;10.746;2023-12-07T12:39:29;5.60;99.90
8633;DHT22;4354;49.832;10.746;2023-12-07T12:42:02;5.50;99.90
8633;DHT22;4354;49.832;10.746;2023-12-07T12:44:31;5.30;1.00
8633;DHT22;4354;49.832;10.746;2023-12-07T12:47:07;5.20;99.90
8633;DHT22;4354;49.832;10.746;2023-12-07T12:49:39;5.10;1.00
8633;DHT22;4354;49.832;10.746;2023-12-07T12:52:10;5.30;1.00
8633;DHT22;4354;49.832;10.746;2023-12-07T12:54:37;5.30;1.00
8633;DHT22;4354;49.832;10.746;2023-12-07T12:57:06;5.40;99.90
8633;DHT22;4354;49.832;10.746;2023-12-07T12:59:34;5.40;99.90
8633;DHT22;4354;49.832;10.746;2023-12-07T13:02:04;5.30;1.00
8633;DHT22;4354;49.832;10.746;2023-12-07T13:04:31;4.90;46.70
8633;DHT22;4354;49.832;10.746;2023-12-07T13:07:08;4.70;99.90
8633;DHT22;4354;49.832;10.746;2023-12-07T13:09:35;4.80;1.00
8633;DHT22;4354;49.832;10.746;2023-12-07T13:12:01;4.60;1.50
8633;DHT22;4354;49.832;10.746;2023-12-07T13:14:32;4.30;79.80
8633;DHT22;4354;49.832;10.746;2023-12-07T13:17:02;4.20;1.00
8633;DHT22;4354;49.832;10.746;2023-12-07T13:19:31;3.80;99.90
8633;DHT22;4354;49.832;10.746;2023-12-07T13:21:59;3.80;1.00
8633;DHT22;4354;49.832;10.746;2023-12-07T13:24:25;3.60;1.00
8633;DHT22;4354;49.832;10.746;2023-12-07T13:26:52;3.50;1.00
8633;DHT22;4354;49.832;10.746;2023-12-07T13:29:19;3.40;1.00
8633;DHT22;4354;49.832;10.746;2023-12-07T13:32:00;3.40;95.70
8633;DHT22;4354;49.832;10.746;2023-12-07T13:34:27;3.20;99.90
8633;DHT22;4354;49.832;10.746;2023-12-07T13:36:55;3.10;99.90
8633;DHT22;4354;49.832;10.746;2023-12-07T13:39:22;3.10;1.00
8633;DHT22;4354;49.832;10.746;2023-12-07T13:41:57;3.10;1.00
8633;DHT22;4354;49.832;10.746;2023-12-07T13:44:26;3.20;1.00
8633;DHT22;4354;49.832;10.746;2023-12-07T13:46:55;3.20;1.00
8633;DHT22;4354;49.832;10.746;2023-12-07T13:49:24;3.20;1.00
8633;DHT22;4354;49.832;10.746;2023-12-07T13:52:02;3.10;1.00
8633;DHT22;4354;49.832;10.746;2023-12-07T13:54:35;3.00;1.00
8633;DHT22;4354;49.832;10.746;2023-12-07T13:57:23;2.90;1.00
8633;DHT22;4354;49.832;10.746;2023-12-07T13:59:54;2.70;1.00
8633;DHT22;4354;49.832;10.746;2023-12-07T14:02:21;2.60;1.00
8633;DHT22;4354;49.832;10.746;2023-12-07T14:04:48;2.40;1.00
8633;DHT22;4354;49.832;10.746;2023-12-07T14:07:18;2.30;1.00
8633;DHT22;4354;49.832;10.746;2023-12-07T14:09:47;2.20;1.00
8633;DHT22;4354;49.832;10.746;2023-12-07T14:12:24;2.00;1.00
8633;DHT22;4354;49.832;10.746;2023-12-07T14:14:52;2.00;1.00
8633;DHT22;4354;49.832;10.746;2023-12-07T14:17:21;1.90;1.00
8633;DHT22;4354;49.832;10.746;2023-12-07T14:20:07;1.80;1.00
8633;DHT22;4354;49.832;10.746;2023-12-07T14:22:55;1.70;1.00
8633;DHT22;4354;49.832;10.746;2023-12-07T14:25:23;1.60;1.00
8633;DHT22;4354;49.832;10.746;2023-12-07T14:27:50;1.60;1.00
8633;DHT22;4354;49.832;10.746;2023-12-07T14:30:17;1.50;1.00
8633;DHT22;4354;49.832;10.746;2023-12-07T14:32:44;1.40;1.00
8633;DHT22;4354;49.832;10.746;2023-12-07T14:35:19;1.30;1.00
8633;DHT22;4354;49.832;10.746;2023-12-07T14:37:46;1.20;1.00
8633;DHT22;4354;49.832;10.746;2023-12-07T14:40:14;1.10;1.00
8633;DHT22;4354;49.832;10.746;2023-12-07T14:42:43;1.00;1.00
8633;DHT22;4354;49.832;10.746;2023-12-07T14:45:12;0.90;1.00
8633;DHT22;4354;49.832;10.746;2023-12-07T14:47:40;0.80;1.00
8633;DHT22;4354;49.832;10.746;2023-12-07T14:50:07;0.60;1.00
8633;DHT22;4354;49.832;10.746;2023-12-07T14:52:34;0.60;10.80
8633;DHT22;4354;49.832;10.746;2023-12-07T14:55:01;0.50;19.30
8633;DHT22;4354;49.832;10.746;2023-12-07T14:57:31;0.40;26.70
8633;DHT22;4354;49.832;10.746;2023-12-07T14:59:58;0.20;30.60
8633;DHT22;4354;49.832;10.746;2023-12-07T15:02:25;0.10;41.20
8633;DHT22;4354;49.832;10.746;2023-12-07T15:04:53;0.00;46.50
8633;DHT22;4354;49.832;10.746;2023-12-07T15:07:19;-0.10;52.90
8633;DHT22;4354;49.832;10.746;2023-12-07T15:09:46;-0.20;58.60
8633;DHT22;4354;49.832;10.746;2023-12-07T15:12:16;-0.30;63.20
8633;DHT22;4354;49.832;10.746;2023-12-07T15:14:45;-0.40;71.30
8633;DHT22;4354;49.832;10.746;2023-12-07T15:17:12;-0.50;76.90
8633;DHT22;4354;49.832;10.746;2023-12-07T15:19:39;-0.60;81.10
8633;DHT22;4354;49.832;10.746;2023-12-07T15:22:08;-0.70;87.90
8633;DHT22;4354;49.832;10.746;2023-12-07T15:24:35;-0.70;90.40
8633;DHT22;4354;49.832;10.746;2023-12-07T15:27:06;-0.80;91.50
8633;DHT22;4354;49.832;10.746;2023-12-07T15:29:34;-0.90;92.10
8633;DHT22;4354;49.832;10.746;2023-12-07T15:32:03;-0.90;93.60
8633;DHT22;4354;49.832;10.746;2023-12-07T15:34:30;-1.00;96.10
8633;DHT22;4354;49.832;10.746;2023-12-07T15:37:06;-1.10;96.80
8633;DHT22;4354;49.832;10.746;2023-12-07T15:39:33;-1.10;97.30
8633;DHT22;4354;49.832;10.746;2023-12-07T15:42:00;-1.20;97.80
8633;DHT22;4354;49.832;10.746;2023-12-07T15:44:29;-1.20;99.80
8633;DHT22;4354;49.832;10.746;2023-12-07T15:46:57;-1.20;99.90
8633;DHT22;4354;49.832;10.746;2023-12-07T15:49:24;-1.30;99.90
8633;DHT22;4354;49.832;10.746;2023-12-07T15:51:52;-1.30;99.90
8633;DHT22;4354;49.832;10.746;2023-12-07T15:54:24;-1.40;99.90
8633;DHT22;4354;49.832;10.746;2023-12-07T15:57:04;-1.40;99.90
8633;DHT22;4354;49.832;10.746;2023-12-07T15:59:31;-1.40;99.90
8633;DHT22;4354;49.832;10.746;2023-12-07T16:01:58;-1.50;99.90
8633;DHT22;4354;49.832;10.746;2023-12-07T16:04:25;-1.40;99.90
8633;DHT22;4354;49.832;10.746;2023-12-07T16:07:00;-1.50;99.90
8633;DHT22;4354;49.832;10.746;2023-12-07T16:09:34;-1.50;99.90
8633;DHT22;4354;49.832;10.746;2023-12-07T16:12:01;-1.60;99.90
8633;DHT22;4354;49.832;10.746;2023-12-07T16:14:29;-1.50;99.90
8633;DHT22;4354;49.832;10.746;2023-12-07T16:17:01;-1.60;99.90